Unicom:                    122.8

AWOS:                  118.275

Elevation           1458’ MSL

TPA:                   2500’ MSL

06/24:         5003’ L   75’ W

PAPI:       06/Left     24/Left

(Operate lights on unicom freq.)

Traffic Pattern: Left

Beacon: Sunset to Sunrise

Windsock: yes, lighted

Segmented Circle: No

 

Cleveland Center: 126.72/291.65

FSS: Altoona

[Source: ADDS]
METAR
KFKL 111956Z AUTO 24015G22KT 9SM -SN OVC038 M04/M11 A3030 RMK AO2 SNB40 SLP284 P0000 T10441106 FZRANO =
KFKL 111737Z 1118/1218 25012G20KT P6SM VCSH BKN035 FM120000 27010KT P6SM BKN035 FM120400 VRB04KT P6SM SKC FM121600 16008KT P6SM SCT250
TAF
KFKL 111737Z 1118/1218 25012G20KT P6SM VCSH BKN035 FM120000 27010KT P6SM BKN035 FM120400 VRB04KT P6SM SKC FM121600 16008KT P6SM SCT250 =
[Source: ADDS]
METAR
KDUJ 111953Z AUTO 24018G25KT 10SM SCT039 OVC075 M04/M13 A3025 RMK AO2 PK WND 25026/1858 SLP269 T10441128 =
KDUJ 111737Z 1118/1218 25012G20KT P6SM SCT035 FM112000 26015G25KT P6SM VCSH BKN035 FM120300 27010KT P6SM SCT025 FM120700 VRB04KT P6SM SKC FM121600 16006KT P6SM SCT250
TAF
KDUJ 111737Z 1118/1218 25012G20KT P6SM SCT035 FM112000 26015G25KT P6SM VCSH BKN035 FM120300 27010KT P6SM SCT025 FM120700 VRB04KT P6SM SKC FM121600 16006KT P6SM SCT250 =

Airport Information. 

Runway Length: 5003ft x 75ft

Runways 6/24

Traffic Pattern: Left

PAPI’s: 2 light PAPI on left of both 6/24

TPA: 2500 msl

Field Elevation: 1458 msl

Surface: Asphalt

Beacon: Operates Sunset-Sunrise

Pilot Controlled Lighting:  yes 122.8

 

Fuel:

Jet-A w/prist

100 LL

Center point fueling available upon request.

 

Unicom Frequency: 122.8

AWOS Frequency: 118.27  (814-227-2899)

 

Cleveland Center: 126.72 (440-774-0442)

 

GPS Approach Plates for 6/24 download here: http://www.airnav.com/airport/KAXQ

[Source: ADDS]
METAR
KFKL 111956Z AUTO 24015G22KT 9SM -SN OVC038 M04/M11 A3030 RMK AO2 SNB40 SLP284 P0000 T10441106 FZRANO =
KFKL 111737Z 1118/1218 25012G20KT P6SM VCSH BKN035 FM120000 27010KT P6SM BKN035 FM120400 VRB04KT P6SM SKC FM121600 16008KT P6SM SCT250
TAF
KFKL 111737Z 1118/1218 25012G20KT P6SM VCSH BKN035 FM120000 27010KT P6SM BKN035 FM120400 VRB04KT P6SM SKC FM121600 16008KT P6SM SCT250 =
[Source: ADDS]
METAR
KDUJ 111953Z AUTO 24018G25KT 10SM SCT039 OVC075 M04/M13 A3025 RMK AO2 PK WND 25026/1858 SLP269 T10441128 =
KDUJ 111737Z 1118/1218 25012G20KT P6SM SCT035 FM112000 26015G25KT P6SM VCSH BKN035 FM120300 27010KT P6SM SCT025 FM120700 VRB04KT P6SM SKC FM121600 16006KT P6SM SCT250
TAF
KDUJ 111737Z 1118/1218 25012G20KT P6SM SCT035 FM112000 26015G25KT P6SM VCSH BKN035 FM120300 27010KT P6SM SCT025 FM120700 VRB04KT P6SM SKC FM121600 16006KT P6SM SCT250 =